Time;durP1;ratioP1;P1;durP2;ratioP2;P2;SDS_P1;SDS_P2;PMS_P1;PMS_P2;Temp;Humidity;BMP_temperature;BMP_pressure;BME280_temperature;BME280_humidity;BME280_pressure;Samples;Min_cycle;Max_cycle;Signal;HPM_P1;HPM_P2
2023/04/01 00:01:00;;;;;;;12.90;10.83;;;;;;;12.34;70.41;98657.09;5051279;28;20730;-81
2023/04/01 00:03:28;;;;;;;16.37;11.03;;;;;;;12.23;70.77;98647.19;5051361;28;20196;-79
2023/04/01 00:05:56;;;;;;;18.43;10.50;;;;;;;12.24;70.87;98635.50;5051369;28;20298;-80
2023/04/01 00:08:23;;;;;;;13.80;9.97;;;;;;;12.33;70.63;98644.78;5062106;28;20214;-80
2023/04/01 00:10:49;;;;;;;15.43;9.93;;;;;;;12.33;70.83;98652.78;5075425;28;20203;-81
2023/04/01 00:13:16;;;;;;;12.07;9.87;;;;;;;12.22;70.75;98656.22;5075075;28;20220;-81
2023/04/01 00:15:44;;;;;;;13.47;10.00;;;;;;;12.08;70.99;98656.66;5075328;28;20205;-85
2023/04/01 00:18:11;;;;;;;10.03;8.97;;;;;;;11.98;71.10;98659.84;5067566;28;20242;-83
2023/04/01 00:20:39;;;;;;;17.67;8.63;;;;;;;11.96;71.45;98653.13;5054994;28;20580;-79
2023/04/01 00:23:06;;;;;;;10.37;8.47;;;;;;;12.03;71.22;98662.63;5054818;28;20292;-81
2023/04/01 00:25:33;;;;;;;13.07;8.70;;;;;;;12.02;71.37;98669.00;5062398;28;20667;-79
2023/04/01 00:27:59;;;;;;;12.57;9.00;;;;;;;11.99;71.25;98676.59;5073160;28;20230;-79
2023/04/01 00:30:26;;;;;;;9.57;8.40;;;;;;;11.84;71.93;98676.19;5072944;28;20563;-78
2023/04/01 00:32:53;;;;;;;8.73;7.97;;;;;;;11.84;71.73;98671.66;5074953;28;20199;-80
2023/04/01 00:35:20;;;;;;;10.53;8.63;;;;;;;11.72;71.77;98668.13;5075026;28;20195;-84
2023/04/01 00:37:49;;;;;;;9.50;8.70;;;;;;;11.68;72.30;98661.63;5070741;28;20226;-83
2023/04/01 00:40:25;;;;;;;8.47;7.77;;;;;;;11.64;71.73;98668.44;5054713;28;20734;-82
2023/04/01 00:42:52;;;;;;;12.67;9.40;;;;;;;11.65;72.14;98666.59;5054948;28;20194;-81
2023/04/01 00:45:32;;;;;;;13.20;9.10;;;;;;;11.60;72.42;98664.59;5054429;28;20192;-79
2023/04/01 00:48:04;;;;;;;12.90;9.03;;;;;;;11.57;72.18;98664.22;5057669;28;20198;-81
2023/04/01 00:50:33;;;;;;;10.47;9.40;;;;;;;11.46;72.19;98655.13;5074275;28;20193;-80
2023/04/01 00:53:03;;;;;;;8.97;8.17;;;;;;;11.43;72.91;98660.88;5074633;28;20194;-80
2023/04/01 00:55:33;;;;;;;14.10;9.27;;;;;;;11.49;72.49;98661.84;5074850;28;20629;-80
2023/04/01 00:58:02;;;;;;;9.30;8.40;;;;;;;11.56;72.39;98658.06;5054926;28;20640;-81
2023/04/01 01:00:29;;;;;;;10.17;9.20;;;;;;;11.56;71.93;98657.28;5054426;28;20249;-81
2023/04/01 01:02:56;;;;;;;14.50;9.13;;;;;;;11.54;72.56;98652.16;5054130;28;20199;-80
2023/04/01 01:05:32;;;;;;;10.67;8.50;;;;;;;11.56;73.16;98647.44;5064293;28;20194;-81
2023/04/01 01:08:10;;;;;;;9.57;8.67;;;;;;;11.57;72.75;98651.72;5074044;28;20652;-81
2023/04/01 01:10:39;;;;;;;9.87;8.93;;;;;;;11.56;73.07;98646.63;5074462;28;20182;-80
2023/04/01 01:13:12;;;;;;;11.80;8.40;;;;;;;11.62;72.64;98648.41;5073899;28;20225;-79
2023/04/01 01:15:47;;;;;;;11.27;8.90;;;;;;;11.69;72.23;98651.81;5060907;28;20197;-80
2023/04/01 01:18:23;;;;;;;9.93;8.93;;;;;;;11.64;72.77;98652.47;5053115;28;20294;-81
2023/04/01 01:21:07;;;;;;;11.10;8.60;;;;;;;11.52;73.38;98651.59;5053869;28;20202;-81
2023/04/01 01:24:15;;;;;;;14.10;9.13;;;;;;;11.51;73.64;98659.78;5054141;28;20200;-81
2023/04/01 01:27:00;;;;;;;14.23;8.90;;;;;;;11.62;73.51;98657.22;5070608;28;20304;-81
2023/04/01 01:29:41;;;;;;;10.20;9.10;;;;;;;11.66;73.85;98652.25;5074041;28;20267;-81
2023/04/01 01:32:17;;;;;;;10.97;9.87;;;;;;;11.74;73.77;98655.44;5073982;28;20183;-79
2023/04/01 01:34:53;;;;;;;12.13;10.30;;;;;;;11.65;74.68;98647.97;5073014;28;20178;-80
2023/04/01 01:37:25;;;;;;;11.77;9.97;;;;;;;11.58;74.55;98645.38;5073397;28;20186;-79
2023/04/01 01:39:56;;;;;;;13.73;9.83;;;;;;;11.59;75.16;98631.03;5073568;28;20721;-80
2023/04/01 01:42:25;;;;;;;11.30;9.67;;;;;;;11.65;75.19;98634.69;5073771;28;20185;-76
2023/04/01 01:44:55;;;;;;;10.07;9.17;;;;;;;11.68;74.47;98635.03;5072298;28;20268;-75
2023/04/01 01:47:23;;;;;;;13.57;10.20;;;;;;;11.57;74.54;98632.28;5073546;28;20201;-76
2023/04/01 01:49:52;;;;;;;13.17;10.17;;;;;;;11.46;75.37;98631.19;5073732;28;20195;-78
2023/04/01 01:52:18;;;;;;;13.17;9.73;;;;;;;11.46;74.95;98631.19;5073182;28;20194;-79
2023/04/01 01:54:50;;;;;;;10.37;9.37;;;;;;;11.37;74.99;98621.06;5054957;28;20198;-76
2023/04/01 01:57:20;;;;;;;10.40;9.40;;;;;;;11.35;75.25;98604.53;5053014;28;20194;-77
2023/04/01 01:59:49;;;;;;;10.63;9.60;;;;;;;11.30;74.90;98605.19;5062962;28;20704;-79
2023/04/01 02:02:17;;;;;;;12.80;8.73;;;;;;;11.33;75.44;98604.75;5073276;28;20278;-78
2023/04/01 02:04:46;;;;;;;9.60;8.67;;;;;;;11.35;75.05;98612.53;5072160;28;20198;-77
2023/04/01 02:07:16;;;;;;;14.43;9.90;;;;;;;11.35;74.83;98601.88;5072897;28;20607;-78
2023/04/01 02:09:43;;;;;;;10.87;9.13;;;;;;;11.43;74.07;98599.72;5072764;28;20660;-77
2023/04/01 02:12:16;;;;;;;14.23;9.30;;;;;;;11.51;73.48;98602.06;5071400;28;20244;-75
2023/04/01 02:14:48;;;;;;;12.10;9.40;;;;;;;11.55;73.38;98605.91;5072618;28;20686;-76
2023/04/01 02:17:17;;;;;;;15.77;9.60;;;;;;;11.47;73.31;98600.09;5072676;28;20190;-78
2023/04/01 02:19:50;;;;;;;10.93;9.83;;;;;;;11.46;73.32;98612.59;5072699;28;20198;-79
2023/04/01 02:22:21;;;;;;;16.87;10.87;;;;;;;11.47;73.38;98632.81;5062320;28;20207;-78
2023/04/01 02:24:50;;;;;;;16.57;11.60;;;;;;;11.39;73.07;98624.34;5054121;28;20618;-79
2023/04/01 02:27:19;;;;;;;17.77;11.70;;;;;;;11.40;73.10;98626.78;5072547;28;20235;-80
2023/04/01 02:29:45;;;;;;;17.63;12.57;;;;;;;11.37;72.89;98611.25;5071922;28;20195;-81
2023/04/01 02:32:14;;;;;;;15.93;12.17;;;;;;;11.39;73.46;98601.19;5071199;28;20267;-80
2023/04/01 02:34:41;;;;;;;20.50;13.00;;;;;;;11.33;73.30;98588.81;5072335;28;20561;-79
2023/04/01 02:37:09;;;;;;;16.57;12.17;;;;;;;11.26;73.40;98598.69;5071627;28;20198;-80
2023/04/01 02:39:36;;;;;;;14.00;11.33;;;;;;;11.18;73.94;98599.00;5072004;28;20605;-80
2023/04/01 02:42:03;;;;;;;16.23;11.80;;;;;;;11.21;74.18;98593.25;5064353;28;20190;-78
2023/04/01 02:44:31;;;;;;;16.43;12.00;;;;;;;11.25;74.40;98586.44;5052465;28;20190;-78
2023/04/01 02:46:57;;;;;;;15.60;12.50;;;;;;;11.31;73.83;98598.84;5052613;28;20198;-76
2023/04/01 02:49:24;;;;;;;15.83;11.83;;;;;;;11.23;73.93;98607.09;5052114;28;20261;-76
2023/04/01 02:51:51;;;;;;;13.97;11.93;;;;;;;11.19;73.96;98597.94;5057650;28;20263;-77
2023/04/01 02:54:18;;;;;;;14.00;12.00;;;;;;;11.22;74.30;98596.72;5071995;28;20659;-79
2023/04/01 02:56:45;;;;;;;15.80;10.90;;;;;;;11.19;74.45;98602.47;5072209;28;20252;-78
2023/04/01 02:59:12;;;;;;;12.40;11.10;;;;;;;11.24;74.76;98595.47;5071835;28;20221;-80
2023/04/01 03:01:40;;;;;;;13.87;12.33;;;;;;;11.30;74.23;98589.25;5067725;28;20244;-78
2023/04/01 03:04:07;;;;;;;12.47;11.27;;;;;;;11.34;73.96;98586.94;5051857;28;20670;-79
2023/04/01 03:06:34;;;;;;;12.03;10.93;;;;;;;11.32;74.22;98584.53;5052348;28;20202;-80
2023/04/01 03:09:01;;;;;;;14.10;11.03;;;;;;;11.34;73.91;98585.09;5052185;28;20205;-79
2023/04/01 03:11:29;;;;;;;17.30;12.13;;;;;;;11.31;73.73;98588.22;5054082;28;20229;-80
2023/04/01 03:13:56;;;;;;;18.37;12.10;;;;;;;11.28;74.22;98598.47;5071303;28;20187;-80
2023/04/01 03:16:22;;;;;;;15.20;12.33;;;;;;;11.28;74.17;98595.81;5071341;28;20255;-80
2023/04/01 03:18:52;;;;;;;21.80;12.67;;;;;;;11.26;74.53;98585.41;5071313;28;20662;-80
2023/04/01 03:21:21;;;;;;;20.87;13.03;;;;;;;11.20;74.39;98570.38;5071011;28;20194;-78
2023/04/01 03:23:47;;;;;;;26.80;14.27;;;;;;;11.29;74.28;98597.44;5071574;28;20636;-79
2023/04/01 03:26:14;;;;;;;18.63;12.53;;;;;;;11.32;74.35;98579.22;5071214;28;20194;-79
2023/04/01 03:28:41;;;;;;;16.43;11.80;;;;;;;11.38;73.87;98574.84;5071138;28;20666;-80
2023/04/01 03:31:08;;;;;;;18.13;11.93;;;;;;;11.33;73.77;98566.72;5070160;28;20223;-81
2023/04/01 03:33:35;;;;;;;19.57;13.63;;;;;;;11.42;73.57;98584.81;5066447;28;20197;-79
2023/04/01 03:36:06;;;;;;;16.90;12.20;;;;;;;11.42;73.35;98571.50;5071912;28;20263;-80
2023/04/01 03:38:33;;;;;;;16.63;12.87;;;;;;;11.44;73.36;98563.31;5071437;28;20213;-80
2023/04/01 03:41:00;;;;;;;17.33;12.03;;;;;;;11.41;73.62;98556.59;5071647;28;20205;-79
2023/04/01 03:43:27;;;;;;;19.57;12.30;;;;;;;11.43;73.57;98549.19;5071394;28;20222;-79
2023/04/01 03:45:54;;;;;;;16.23;12.87;;;;;;;11.38;73.53;98554.38;5073837;28;20202;-78
2023/04/01 03:48:21;;;;;;;14.17;12.00;;;;;;;11.42;73.68;98554.75;5075251;28;20581;-80
2023/04/01 03:50:48;;;;;;;17.43;12.80;;;;;;;11.48;73.61;98570.63;5074975;28;20751;-78
2023/04/01 03:53:16;;;;;;;12.90;11.60;;;;;;;11.52;73.46;98571.81;5071764;28;20251;-80
2023/04/01 03:55:43;;;;;;;15.77;12.50;;;;;;;11.52;73.65;98571.81;5075302;28;20198;-80
2023/04/01 03:58:10;;;;;;;19.23;12.33;;;;;;;11.39;72.89;98561.31;5074999;28;20267;-79
2023/04/01 04:00:37;;;;;;;21.63;12.57;;;;;;;11.27;74.20;98559.66;5072781;28;20200;-78
2023/04/01 04:03:04;;;;;;;16.90;12.67;;;;;;;11.14;74.46;98541.22;5071401;28;20728;-78
2023/04/01 04:05:31;;;;;;;14.33;12.00;;;;;;;10.92;75.51;98543.50;5074592;28;20227;-77
2023/04/01 04:07:57;;;;;;;17.93;11.70;;;;;;;11.02;75.74;98549.09;5072351;28;20198;-78
2023/04/01 04:10:25;;;;;;;16.67;11.70;;;;;;;11.05;74.71;98553.97;5074615;28;20189;-79
2023/04/01 04:12:53;;;;;;;13.07;11.30;;;;;;;11.08;75.31;98553.53;5073452;28;20193;-78
2023/04/01 04:15:20;;;;;;;16.40;12.27;;;;;;;11.17;75.21;98552.19;5074862;28;20255;-79
2023/04/01 04:17:47;;;;;;;14.80;12.07;;;;;;;11.23;75.06;98532.69;5074573;28;20679;-79
2023/04/01 04:20:14;;;;;;;17.30;11.90;;;;;;;11.33;74.93;98543.63;5073368;28;20649;-78
2023/04/01 04:22:44;;;;;;;13.90;11.00;;;;;;;11.40;74.00;98552.34;5074701;28;20206;-78
2023/04/01 04:25:11;;;;;;;14.90;11.40;;;;;;;11.41;74.35;98553.13;5074598;28;20187;-79
2023/04/01 04:27:39;;;;;;;18.73;11.23;;;;;;;11.22;74.12;98512.47;5071538;28;20233;-78
2023/04/01 04:30:08;;;;;;;13.20;11.30;;;;;;;11.63;73.65;98547.13;5071739;28;20206;-79
2023/04/01 04:32:34;;;;;;;17.57;13.47;;;;;;;11.68;73.50;98555.22;5074193;28;20197;-82
2023/04/01 04:35:02;;;;;;;21.93;13.63;;;;;;;11.78;73.95;98549.38;5073063;28;20579;-79
2023/04/01 04:37:29;;;;;;;10.97;9.97;;;;;;;11.74;73.78;98522.44;5073966;28;20251;-81
2023/04/01 04:39:57;;;;;;;12.23;10.50;;;;;;;12.08;72.87;98550.97;5074323;28;20655;-80
2023/04/01 04:42:24;;;;;;;11.50;9.33;;;;;;;12.42;72.28;98552.88;5072752;28;20194;-81
2023/04/01 04:44:52;;;;;;;9.10;8.20;;;;;;;12.76;70.66;98548.59;5073798;28;20194;-81
2023/04/01 04:47:18;;;;;;;11.27;7.83;;;;;;;13.24;68.92;98560.59;5074348;28;20252;-80
2023/04/01 04:49:45;;;;;;;8.67;7.97;;;;;;;13.31;68.71;98563.94;5071318;28;20203;-81
2023/04/01 04:52:12;;;;;;;22.30;10.73;;;;;;;13.19;69.03;98565.84;5071309;28;20677;-79
2023/04/01 04:54:38;;;;;;;12.60;8.73;;;;;;;13.16;69.79;98570.84;5074066;28;20264;-79
2023/04/01 04:57:05;;;;;;;16.97;7.47;;;;;;;13.11;68.92;98571.53;5071642;28;20252;-79
2023/04/01 04:59:32;;;;;;;11.73;8.53;;;;;;;13.08;69.61;98574.69;5073982;28;20216;-79
2023/04/01 05:02:00;;;;;;;11.43;7.33;;;;;;;13.06;69.16;98565.25;5070359;28;20187;-79
2023/04/01 05:04:27;;;;;;;11.20;7.47;;;;;;;13.03;69.40;98563.88;5071365;28;20272;-78
2023/04/01 05:06:54;;;;;;;15.20;7.57;;;;;;;13.00;70.62;98551.03;5073589;28;20246;-77
2023/04/01 05:09:21;;;;;;;7.73;6.93;;;;;;;13.06;70.16;98558.09;5073949;28;20196;-80
2023/04/01 05:11:53;;;;;;;9.93;8.07;;;;;;;13.08;70.05;98553.34;5072037;28;20673;-81
2023/04/01 05:14:21;;;;;;;12.77;8.93;;;;;;;13.28;69.25;98567.06;5073120;28;20620;-78
2023/04/01 05:16:50;;;;;;;12.73;8.03;;;;;;;13.22;69.75;98565.38;5073734;28;20203;-78
2023/04/01 05:19:22;;;;;;;27.17;11.10;;;;;;;13.22;69.78;98564.53;5073264;28;20960;-77
2023/04/01 05:21:52;;;;;;;26.23;8.23;;;;;;;13.17;70.28;98546.59;5072807;28;20579;-79
2023/04/01 05:24:19;;;;;;;7.70;6.97;;;;;;;13.30;69.82;98546.34;5073530;28;20192;-76
2023/04/01 05:26:46;;;;;;;11.40;7.30;;;;;;;13.44;69.35;98553.00;5073139;28;20238;-69
2023/04/01 05:29:12;;;;;;;13.43;8.03;;;;;;;13.50;69.13;98546.75;5071294;28;20655;-72
2023/04/01 05:31:39;;;;;;;9.33;8.40;;;;;;;13.42;68.59;98541.78;5070729;28;20203;-70
2023/04/01 05:34:06;;;;;;;9.00;7.30;;;;;;;13.52;69.37;98544.63;5072455;28;20261;-71
2023/04/01 05:36:35;;;;;;;11.23;7.30;;;;;;;13.45;68.82;98543.97;5072221;28;20246;-73
2023/04/01 05:39:03;;;;;;;12.43;7.30;;;;;;;13.45;68.67;98533.31;5071475;28;20227;-73
2023/04/01 05:41:29;;;;;;;10.40;7.97;;;;;;;13.56;69.85;98519.09;5072663;28;20269;-70
2023/04/01 05:43:56;;;;;;;14.47;8.07;;;;;;;13.64;68.63;98516.03;5072882;28;20196;-71
2023/04/01 05:46:23;;;;;;;11.07;8.87;;;;;;;13.71;68.75;98514.03;5072523;28;20192;-70
2023/04/01 05:48:49;;;;;;;9.80;7.73;;;;;;;13.70;67.75;98507.09;5061795;28;20197;-70
2023/04/01 05:51:17;;;;;;;19.80;8.80;;;;;;;13.70;68.24;98498.25;5054667;28;20306;-73
2023/04/01 05:53:45;;;;;;;11.90;8.10;;;;;;;13.67;67.95;98499.56;5061923;28;20669;-71
2023/04/01 05:56:12;;;;;;;15.73;7.73;;;;;;;13.62;68.42;98502.16;5059088;28;20245;-69
2023/04/01 05:58:39;;;;;;;11.00;7.40;;;;;;;13.54;68.37;98483.84;5052507;28;20204;-71
2023/04/01 06:01:07;;;;;;;6.97;6.27;;;;;;;13.42;68.99;98488.44;5052861;28;20262;-71
2023/04/01 06:03:34;;;;;;;7.57;5.53;;;;;;;13.44;69.28;98482.84;5052561;28;20219;-70
2023/04/01 06:06:02;;;;;;;6.30;5.80;;;;;;;13.36;70.06;98470.69;5052370;28;20197;-70
2023/04/01 06:08:32;;;;;;;9.77;6.03;;;;;;;13.42;68.86;98507.09;5064333;28;20620;-72
2023/04/01 06:11:21;;;;;;;9.33;6.30;;;;;;;13.32;69.94;98488.22;5052456;28;20192;-69
2023/04/01 06:14:05;;;;;;;7.17;6.17;;;;;;;13.27;69.99;98477.47;5052982;28;20189;-73
2023/04/01 06:16:44;;;;;;;16.77;9.93;;;;;;;13.28;70.27;98447.06;5054487;28;20180;-71
2023/04/01 06:19:23;;;;;;;10.10;9.03;;;;;;;13.05;71.12;98447.19;5072439;28;20215;-71
2023/04/01 06:22:17;;;;;;;8.90;7.97;;;;;;;13.13;71.25;98446.81;5072226;28;20179;-70
2023/04/01 06:25:03;;;;;;;14.13;6.80;;;;;;;13.27;70.63;98442.78;5072192;28;20729;-70
2023/04/01 06:27:45;;;;;;;12.47;9.30;;;;;;;13.21;70.85;98456.28;5071075;28;20227;-73
2023/04/01 06:30:29;;;;;;;9.93;7.53;;;;;;;13.38;71.08;98455.28;5072323;28;20253;-70
2023/04/01 06:33:09;;;;;;;9.07;7.40;;;;;;;13.76;75.40;98462.63;5071903;28;20657;-69
2023/04/01 06:35:51;;;;;;;9.87;7.03;;;;;;;13.78;70.08;98468.53;5063338;28;20672;-69
2023/04/01 06:38:46;;;;;;;9.47;7.67;;;;;;;13.67;69.54;98462.19;5051598;28;20243;-68
2023/04/01 06:41:29;;;;;;;9.80;7.70;;;;;;;13.60;70.48;98466.88;5036825;28;20204;-68
2023/04/01 06:44:07;;;;;;;8.00;7.30;;;;;;;13.39;70.98;98459.56;5071880;28;20271;-69
2023/04/01 06:46:45;;;;;;;11.33;6.90;;;;;;;13.34;71.66;98461.31;5070086;28;20254;-67
2023/04/01 06:49:42;;;;;;;11.57;7.47;;;;;;;13.19;72.46;98456.50;5071782;28;20274;-69
2023/04/01 06:52:20;;;;;;;11.30;7.47;;;;;;;13.33;72.68;98455.19;5058906;28;20199;-69
2023/04/01 06:54:52;;;;;;;7.23;6.53;;;;;;;13.44;71.96;98456.97;5070159;28;20182;-67
2023/04/01 06:57:25;;;;;;;8.47;6.63;;;;;;;13.65;71.54;98458.97;5067406;28;20190;-69
2023/04/01 06:59:58;;;;;;;8.00;6.83;;;;;;;13.68;70.82;98468.38;5069389;28;20203;-68
2023/04/01 07:02:30;;;;;;;12.87;7.27;;;;;;;13.79;70.60;98470.13;5071159;28;20257;-69
2023/04/01 07:04:59;;;;;;;6.80;6.30;;;;;;;13.94;70.13;98476.56;5069999;28;20180;-71
2023/04/01 07:07:35;;;;;;;8.70;6.60;;;;;;;14.01;70.30;98468.38;5070663;28;20203;-70
2023/04/01 07:10:07;;;;;;;6.70;6.10;;;;;;;14.17;69.87;98463.03;5071631;28;20222;-69
2023/04/01 07:12:42;;;;;;;7.10;6.47;;;;;;;14.21;69.64;98437.47;5071445;28;20184;-69
2023/04/01 07:15:18;;;;;;;9.13;6.67;;;;;;;14.37;69.01;98446.50;5070044;28;20580;-70
2023/04/01 07:17:47;;;;;;;9.40;7.50;;;;;;;14.42;68.92;98444.72;5071831;28;20278;-69
2023/04/01 07:20:17;;;;;;;9.87;7.23;;;;;;;14.48;69.14;98438.41;5071047;28;20348;-70
2023/04/01 07:22:46;;;;;;;7.60;6.83;;;;;;;14.51;68.46;98437.94;5070828;28;20639;-69
2023/04/01 07:25:17;;;;;;;9.10;5.93;;;;;;;14.47;69.15;98434.13;5069550;28;20198;-68
2023/04/01 07:27:45;;;;;;;10.20;6.53;;;;;;;14.49;68.68;98417.84;5071150;28;20227;-70
2023/04/01 07:30:17;;;;;;;7.73;6.03;;;;;;;14.49;69.14;98415.16;5071167;28;20191;-72
2023/04/01 07:32:49;;;;;;;9.17;6.27;;;;;;;14.45;69.21;98412.19;5070955;28;20191;-69
2023/04/01 07:35:29;;;;;;;7.60;6.90;;;;;;;14.35;69.55;98419.25;5070546;28;20192;-70
2023/04/01 07:38:10;;;;;;;12.40;7.33;;;;;;;14.49;69.69;98424.00;5071209;28;20184;-70
2023/04/01 07:40:47;;;;;;;8.07;6.97;;;;;;;14.54;70.10;98410.69;5068871;28;20666;-70
2023/04/01 07:43:26;;;;;;;7.77;6.83;;;;;;;14.81;68.73;98411.59;5070884;28;20191;-72
2023/04/01 07:46:04;;;;;;;9.63;6.77;;;;;;;14.88;68.73;98417.56;5062095;28;20238;-68
2023/04/01 07:48:36;;;;;;;11.13;7.07;;;;;;;14.95;67.95;98412.81;5051345;28;20188;-70
2023/04/01 07:51:08;;;;;;;9.23;6.07;;;;;;;15.14;67.62;98413.28;5050774;28;20218;-71
2023/04/01 07:53:41;;;;;;;6.57;6.00;;;;;;;15.24;68.03;98414.19;5067721;28;20261;-70
2023/04/01 07:56:12;;;;;;;17.97;7.77;;;;;;;15.42;67.45;98419.25;5070056;28;20188;-69
2023/04/01 07:58:53;;;;;;;10.93;6.83;;;;;;;15.70;66.54;98410.94;5070684;28;20261;-69
2023/04/01 08:01:32;;;;;;;8.27;6.03;;;;;;;15.91;65.27;98414.59;5070972;28;20269;-67
2023/04/01 08:04:16;;;;;;;11.43;6.07;;;;;;;16.05;64.64;98407.72;5056245;28;20639;-69
2023/04/01 08:06:49;;;;;;;7.63;5.57;;;;;;;16.06;64.69;98408.53;5066605;28;20249;-70
2023/04/01 08:09:24;;;;;;;10.67;6.07;;;;;;;15.89;65.31;98403.34;5071361;28;20188;-71
2023/04/01 08:12:05;;;;;;;11.47;6.20;;;;;;;16.06;65.04;98400.50;5071012;28;20187;-71
2023/04/01 08:14:43;;;;;;;8.10;5.70;;;;;;;16.16;64.71;98392.53;5068091;28;20583;-70
2023/04/01 08:17:20;;;;;;;11.40;5.60;;;;;;;15.98;64.99;98381.16;5071312;28;20188;-72
2023/04/01 08:19:57;;;;;;;9.07;5.50;;;;;;;15.88;65.20;98365.03;5071056;28;20215;-71
2023/04/01 08:22:28;;;;;;;8.40;6.97;;;;;;;15.80;65.29;98376.22;5070220;28;20183;-71
2023/04/01 08:24:59;;;;;;;8.63;6.03;;;;;;;15.86;65.80;98372.50;5061801;28;20185;-71
2023/04/01 08:27:35;;;;;;;12.13;6.57;;;;;;;15.88;65.37;98363.41;5071809;28;20692;-71
2023/04/01 08:30:06;;;;;;;7.97;6.97;;;;;;;15.92;65.41;98364.53;5075057;28;20207;-71
2023/04/01 08:32:38;;;;;;;8.47;5.70;;;;;;;15.93;64.99;98350.88;5073986;28;20184;-72
2023/04/01 08:35:15;;;;;;;10.83;6.20;;;;;;;15.94;64.44;98353.28;5074624;28;20184;-72
2023/04/01 08:37:44;;;;;;;6.97;6.10;;;;;;;15.97;65.07;98351.97;5074812;28;20245;-72
2023/04/01 08:40:46;;;;;;;7.00;5.50;;;;;;;15.96;64.79;98354.91;5074306;28;20712;-71
2023/04/01 08:43:24;;;;;;;8.77;5.83;;;;;;;16.01;65.05;98362.97;5054542;28;20196;-71
2023/04/01 08:46:26;;;;;;;10.07;5.70;;;;;;;16.14;64.98;98344.56;5054922;28;20286;-71
2023/04/01 08:49:12;;;;;;;5.87;5.37;;;;;;;16.19;64.03;98333.88;5012504;28;20192;-72
2023/04/01 08:52:13;;;;;;;7.27;6.20;;;;;;;16.23;64.01;98328.78;5074662;28;20192;-73
2023/04/01 08:55:16;;;;;;;6.63;5.87;;;;;;;16.24;64.09;98319.69;5074388;28;20198;-73
2023/04/01 08:57:52;;;;;;;6.27;5.67;;;;;;;16.23;63.79;98323.44;5074533;28;20184;-73
2023/04/01 09:00:31;;;;;;;6.67;6.07;;;;;;;16.32;63.65;98316.50;5060998;28;20208;-72
2023/04/01 09:03:14;;;;;;;9.00;6.27;;;;;;;16.39;63.78;98322.44;5054378;28;20279;-71
2023/04/01 09:06:22;;;;;;;9.80;6.90;;;;;;;16.45;63.40;98310.72;5054334;28;20246;-72
2023/04/01 09:09:05;;;;;;;6.73;6.13;;;;;;;16.55;62.98;98294.66;5054416;28;20614;-71
2023/04/01 09:11:46;;;;;;;10.57;7.00;;;;;;;16.67;62.76;98292.56;5054207;28;20630;-72
2023/04/01 09:14:38;;;;;;;13.13;7.03;;;;;;;16.65;63.19;98284.00;5053753;28;20185;-72
2023/04/01 09:17:41;;;;;;;7.03;6.30;;;;;;;16.75;62.60;98278.66;5054200;28;20184;-72
2023/04/01 09:20:29;;;;;;;8.17;6.10;;;;;;;16.70;61.71;98271.38;5063933;28;20688;-72
2023/04/01 09:23:21;;;;;;;13.47;6.80;;;;;;;16.69;62.59;98269.78;5074214;28;20192;-71
2023/04/01 09:26:01;;;;;;;11.30;6.50;;;;;;;16.64;62.17;98259.03;5072657;28;20200;-71
2023/04/01 09:28:34;;;;;;;14.40;6.70;;;;;;;16.71;62.14;98259.59;5073345;28;20228;-71
2023/04/01 09:31:25;;;;;;;9.50;6.87;;;;;;;16.53;62.42;98253.94;5055300;28;20204;-71
2023/04/01 09:34:28;;;;;;;11.97;6.67;;;;;;;16.37;63.10;98244.19;5053748;28;20188;-71
2023/04/01 09:37:18;;;;;;;12.40;7.43;;;;;;;16.45;62.92;98246.41;5053791;28;20189;-71
2023/04/01 09:40:00;;;;;;;10.40;6.77;;;;;;;16.46;63.07;98237.28;5058022;28;20184;-72
2023/04/01 09:42:43;;;;;;;10.63;5.70;;;;;;;16.58;62.89;98221.78;5073404;28;20724;-71
2023/04/01 09:45:24;;;;;;;9.20;6.77;;;;;;;16.76;61.74;98240.03;5073548;28;20276;-71
2023/04/01 09:48:03;;;;;;;11.90;7.10;;;;;;;16.88;61.51;98245.94;5073221;28;20246;-71
2023/04/01 09:50:50;;;;;;;9.53;6.53;;;;;;;16.98;61.76;98251.34;5060611;28;20194;-72
2023/04/01 09:53:27;;;;;;;7.13;6.07;;;;;;;17.02;61.38;98247.03;5053424;28;20624;-72
2023/04/01 09:56:47;;;;;;;11.53;6.30;;;;;;;17.22;60.79;98236.28;5053026;28;20650;-71
2023/04/01 09:59:43;;;;;;;12.70;6.63;;;;;;;17.36;59.76;98229.31;5067641;28;20243;-71
2023/04/01 10:02:34;;;;;;;7.90;6.77;;;;;;;17.47;59.11;98223.69;5073197;28;20719;-72
2023/04/01 10:05:35;;;;;;;7.57;6.87;;;;;;;17.64;58.41;98218.03;5072987;28;20196;-72
2023/04/01 10:08:33;;;;;;;15.20;6.90;;;;;;;17.80;58.30;98200.81;5054027;28;20189;-71
2023/04/01 10:11:23;;;;;;;10.37;6.70;;;;;;;17.76;58.50;98189.00;5053073;28;20193;-71
2023/04/01 10:14:28;;;;;;;9.57;7.33;;;;;;;17.74;58.67;98189.28;5053100;28;20188;-71
2023/04/01 10:17:24;;;;;;;9.57;6.37;;;;;;;17.97;57.58;98185.16;5025350;28;20687;-72
2023/04/01 10:20:03;;;;;;;8.77;5.87;;;;;;;18.14;57.14;98180.25;5072861;28;20204;-72
2023/04/01 10:22:56;;;;;;;14.47;6.63;;;;;;;18.14;57.03;98169.50;5072627;28;20672;-72
2023/04/01 10:26:05;;;;;;;7.40;6.07;;;;;;;18.20;56.89;98158.44;5072294;28;20654;-71
2023/04/01 10:28:59;;;;;;;11.47;7.10;;;;;;;18.25;56.98;98144.19;5052454;28;20224;-72
2023/04/01 10:31:43;;;;;;;9.90;6.73;;;;;;;18.41;56.70;98153.75;5053023;28;20189;-72
2023/04/01 10:34:45;;;;;;;16.03;9.47;;;;;;;18.46;55.89;98149.16;5052567;28;20189;-72
2023/04/01 10:37:24;;;;;;;57.83;27.30;;;;;;;18.34;56.89;98158.66;5027099;28;20224;-71
2023/04/01 10:40:20;;;;;;;12.50;8.50;;;;;;;18.24;56.94;98134.50;5052605;28;20212;-71
2023/04/01 10:43:17;;;;;;;18.20;13.30;;;;;;;18.22;57.14;98128.59;5052030;28;20719;-72
2023/04/01 10:46:20;;;;;;;8.60;6.87;;;;;;;18.22;57.12;98109.78;5052270;28;20551;-71
2023/04/01 10:49:22;;;;;;;8.07;7.30;;;;;;;18.32;57.15;98093.56;5052432;28;20254;-72
2023/04/01 10:52:25;;;;;;;7.93;7.33;;;;;;;18.45;56.71;98080.34;5051969;28;20656;-72
2023/04/01 10:55:12;;;;;;;10.90;6.60;;;;;;;18.60;56.38;98069.47;5052069;28;20192;-72
2023/04/01 10:58:31;;;;;;;8.33;7.17;;;;;;;18.92;55.40;98075.09;5065221;28;20658;-72
2023/04/01 11:01:26;;;;;;;9.83;7.10;;;;;;;18.95;55.04;98052.22;5005013;28;20220;-71
2023/04/01 11:04:38;;;;;;;10.23;6.80;;;;;;;19.03;54.91;98054.28;5051886;28;20671;-72
2023/04/01 11:07:44;;;;;;;6.73;5.60;;;;;;;18.91;55.36;98053.88;5060156;28;20241;-72
2023/04/01 11:10:58;;;;;;;7.00;6.37;;;;;;;19.02;55.17;98058.03;5071716;28;20246;-72
2023/04/01 11:14:12;;;;;;;9.63;5.97;;;;;;;19.25;53.98;98057.28;5059039;28;20259;-72
2023/04/01 11:17:10;;;;;;;8.20;6.53;;;;;;;19.27;53.94;98052.41;4984817;28;20629;-72
2023/04/01 11:20:08;;;;;;;8.43;6.07;;;;;;;19.29;53.96;98020.63;5050153;28;20202;-72
2023/04/01 11:23:01;;;;;;;8.90;5.67;;;;;;;19.34;53.60;98023.25;5038445;28;20196;-72
2023/04/01 11:25:52;;;;;;;6.63;5.97;;;;;;;19.48;53.14;98030.34;5055415;28;20199;-72
2023/04/01 11:28:36;;;;;;;6.30;5.70;;;;;;;19.62;53.42;98027.75;5070260;28;20644;-72
2023/04/01 11:31:35;;;;;;;7.33;5.87;;;;;;;19.48;53.07;98019.56;5071559;28;20728;-73
2023/04/01 11:34:17;;;;;;;8.33;5.73;;;;;;;19.60;52.96;98024.56;5058881;28;20199;-72
2023/04/01 11:36:59;;;;;;;7.53;6.13;;;;;;;19.68;52.96;98029.28;5065378;28;20250;-72
2023/04/01 11:39:33;;;;;;;11.63;5.93;;;;;;;19.85;52.34;98006.13;5051771;28;20188;-71
2023/04/01 11:42:15;;;;;;;9.13;6.67;;;;;;;20.01;52.08;97996.72;5052506;28;20203;-72
2023/04/01 11:44:52;;;;;;;9.50;6.43;;;;;;;20.20;51.91;98002.13;5051186;28;20662;-72
2023/04/01 11:48:08;;;;;;;9.57;7.03;;;;;;;20.31;51.01;97990.09;5051701;28;20191;-74
2023/04/01 11:50:58;;;;;;;11.23;7.20;;;;;;;20.15;51.65;97975.25;5051125;28;20185;-73
2023/04/01 11:53:35;;;;;;;13.40;5.83;;;;;;;20.12;51.76;97992.84;5070316;28;20190;-72
2023/04/01 11:56:15;;;;;;;14.27;7.27;;;;;;;20.19;51.66;97984.38;5071661;28;20356;-72
2023/04/01 11:59:00;;;;;;;13.53;6.83;;;;;;;19.99;52.22;97987.34;5071567;28;20183;-73
2023/04/01 12:01:34;;;;;;;12.57;7.13;;;;;;;20.05;52.27;97980.78;5055849;28;20207;-73
2023/04/01 12:04:32;;;;;;;14.13;7.27;;;;;;;19.97;52.61;97982.25;5055103;28;20641;-73
2023/04/01 12:07:09;;;;;;;11.53;6.70;;;;;;;19.98;53.19;97983.84;5055595;28;20196;-73
2023/04/01 12:09:47;;;;;;;8.03;7.33;;;;;;;19.81;53.11;97972.00;5069372;28;20667;-73